sensor_id;sensor_type;location;lat;lon;timestamp;P1;durP1;ratioP1;P2;durP2;ratioP2
12623;SDS011;6377;42.836;23.998;2023-09-19T00:00:17;5.13;;;4.30;;
12623;SDS011;6377;42.836;23.998;2023-09-19T00:02:46;4.73;;;4.27;;
12623;SDS011;6377;42.836;23.998;2023-09-19T00:05:18;5.20;;;4.37;;
12623;SDS011;6377;42.836;23.998;2023-09-19T00:07:49;5.27;;;4.00;;
12623;SDS011;6377;42.836;23.998;2023-09-19T00:10:19;5.77;;;4.20;;
12623;SDS011;6377;42.836;23.998;2023-09-19T00:12:48;5.37;;;4.07;;
12623;SDS011;6377;42.836;23.998;2023-09-19T00:15:17;4.43;;;4.03;;
12623;SDS011;6377;42.836;23.998;2023-09-19T00:17:44;5.23;;;4.37;;
12623;SDS011;6377;42.836;23.998;2023-09-19T00:20:13;4.43;;;3.93;;
12623;SDS011;6377;42.836;23.998;2023-09-19T00:22:42;5.53;;;3.80;;
12623;SDS011;6377;42.836;23.998;2023-09-19T00:25:10;4.33;;;3.93;;
12623;SDS011;6377;42.836;23.998;2023-09-19T00:27:38;5.87;;;3.87;;
12623;SDS011;6377;42.836;23.998;2023-09-19T00:30:09;4.47;;;4.07;;
12623;SDS011;6377;42.836;23.998;2023-09-19T00:32:41;4.43;;;4.03;;
12623;SDS011;6377;42.836;23.998;2023-09-19T00:35:09;5.00;;;4.33;;
12623;SDS011;6377;42.836;23.998;2023-09-19T00:37:37;5.80;;;3.97;;
12623;SDS011;6377;42.836;23.998;2023-09-19T00:40:05;5.23;;;4.00;;
12623;SDS011;6377;42.836;23.998;2023-09-19T00:42:37;4.27;;;3.87;;
12623;SDS011;6377;42.836;23.998;2023-09-19T00:45:06;6.03;;;4.03;;
12623;SDS011;6377;42.836;23.998;2023-09-19T00:47:38;4.93;;;4.20;;
12623;SDS011;6377;42.836;23.998;2023-09-19T00:50:07;4.60;;;4.10;;
12623;SDS011;6377;42.836;23.998;2023-09-19T00:52:39;5.77;;;4.17;;
12623;SDS011;6377;42.836;23.998;2023-09-19T00:55:09;4.60;;;4.20;;
12623;SDS011;6377;42.836;23.998;2023-09-19T00:57:39;4.47;;;4.07;;
12623;SDS011;6377;42.836;23.998;2023-09-19T01:00:08;4.40;;;4.00;;
12623;SDS011;6377;42.836;23.998;2023-09-19T01:02:42;7.43;;;3.87;;
12623;SDS011;6377;42.836;23.998;2023-09-19T01:05:10;5.80;;;4.20;;
12623;SDS011;6377;42.836;23.998;2023-09-19T01:07:37;6.23;;;4.20;;
12623;SDS011;6377;42.836;23.998;2023-09-19T01:10:06;6.17;;;4.60;;
12623;SDS011;6377;42.836;23.998;2023-09-19T01:12:39;6.27;;;4.47;;
12623;SDS011;6377;42.836;23.998;2023-09-19T01:15:15;5.40;;;3.97;;
12623;SDS011;6377;42.836;23.998;2023-09-19T01:17:52;4.77;;;4.37;;
12623;SDS011;6377;42.836;23.998;2023-09-19T01:20:27;4.30;;;3.90;;
12623;SDS011;6377;42.836;23.998;2023-09-19T01:23:11;4.30;;;3.63;;
12623;SDS011;6377;42.836;23.998;2023-09-19T01:26:01;7.83;;;4.20;;
12623;SDS011;6377;42.836;23.998;2023-09-19T01:28:39;5.03;;;3.70;;
12623;SDS011;6377;42.836;23.998;2023-09-19T01:31:22;4.93;;;3.93;;
12623;SDS011;6377;42.836;23.998;2023-09-19T01:33:57;6.37;;;4.07;;
12623;SDS011;6377;42.836;23.998;2023-09-19T01:36:29;6.00;;;4.20;;
12623;SDS011;6377;42.836;23.998;2023-09-19T01:39:00;4.80;;;3.70;;
12623;SDS011;6377;42.836;23.998;2023-09-19T01:41:39;5.33;;;3.87;;
12623;SDS011;6377;42.836;23.998;2023-09-19T01:44:17;4.10;;;3.70;;
12623;SDS011;6377;42.836;23.998;2023-09-19T01:46:52;4.37;;;3.80;;
12623;SDS011;6377;42.836;23.998;2023-09-19T01:49:27;4.47;;;3.67;;
12623;SDS011;6377;42.836;23.998;2023-09-19T01:52:02;6.40;;;3.70;;
12623;SDS011;6377;42.836;23.998;2023-09-19T01:54:40;5.87;;;3.80;;
12623;SDS011;6377;42.836;23.998;2023-09-19T01:57:17;5.10;;;3.95;;
12623;SDS011;6377;42.836;23.998;2023-09-19T01:59:54;4.73;;;4.23;;
12623;SDS011;6377;42.836;23.998;2023-09-19T02:02:33;4.60;;;3.80;;
12623;SDS011;6377;42.836;23.998;2023-09-19T02:05:03;5.30;;;4.10;;
12623;SDS011;6377;42.836;23.998;2023-09-19T02:07:31;5.23;;;4.07;;
12623;SDS011;6377;42.836;23.998;2023-09-19T02:09:58;6.10;;;4.03;;
12623;SDS011;6377;42.836;23.998;2023-09-19T02:12:26;7.47;;;4.67;;
12623;SDS011;6377;42.836;23.998;2023-09-19T02:14:53;6.37;;;4.20;;
12623;SDS011;6377;42.836;23.998;2023-09-19T02:17:21;4.73;;;4.10;;
12623;SDS011;6377;42.836;23.998;2023-09-19T02:19:52;5.60;;;4.10;;
12623;SDS011;6377;42.836;23.998;2023-09-19T02:22:20;4.87;;;4.33;;
12623;SDS011;6377;42.836;23.998;2023-09-19T02:24:48;5.13;;;4.67;;
12623;SDS011;6377;42.836;23.998;2023-09-19T02:27:16;7.27;;;4.37;;
12623;SDS011;6377;42.836;23.998;2023-09-19T02:29:44;5.87;;;4.43;;
12623;SDS011;6377;42.836;23.998;2023-09-19T02:32:11;5.20;;;4.10;;
12623;SDS011;6377;42.836;23.998;2023-09-19T02:34:38;5.17;;;4.23;;
12623;SDS011;6377;42.836;23.998;2023-09-19T02:37:08;4.63;;;4.20;;
12623;SDS011;6377;42.836;23.998;2023-09-19T02:39:36;5.80;;;4.20;;
12623;SDS011;6377;42.836;23.998;2023-09-19T02:42:03;4.40;;;4.00;;
12623;SDS011;6377;42.836;23.998;2023-09-19T02:44:31;5.00;;;4.50;;
12623;SDS011;6377;42.836;23.998;2023-09-19T02:46:59;5.33;;;3.93;;
12623;SDS011;6377;42.836;23.998;2023-09-19T02:49:26;5.03;;;4.03;;
12623;SDS011;6377;42.836;23.998;2023-09-19T02:51:54;6.73;;;4.23;;
12623;SDS011;6377;42.836;23.998;2023-09-19T02:54:25;4.87;;;3.70;;
12623;SDS011;6377;42.836;23.998;2023-09-19T02:56:53;5.57;;;4.00;;
12623;SDS011;6377;42.836;23.998;2023-09-19T02:59:21;6.27;;;4.73;;
12623;SDS011;6377;42.836;23.998;2023-09-19T03:01:50;4.90;;;4.20;;
12623;SDS011;6377;42.836;23.998;2023-09-19T03:04:19;6.30;;;4.20;;
12623;SDS011;6377;42.836;23.998;2023-09-19T03:06:46;4.47;;;4.07;;
12623;SDS011;6377;42.836;23.998;2023-09-19T03:09:16;4.20;;;3.80;;
12623;SDS011;6377;42.836;23.998;2023-09-19T03:11:46;4.27;;;3.83;;
12623;SDS011;6377;42.836;23.998;2023-09-19T03:14:13;6.00;;;4.30;;
12623;SDS011;6377;42.836;23.998;2023-09-19T03:16:41;5.00;;;3.90;;
12623;SDS011;6377;42.836;23.998;2023-09-19T03:19:09;5.27;;;3.97;;
12623;SDS011;6377;42.836;23.998;2023-09-19T03:21:37;5.10;;;4.10;;
12623;SDS011;6377;42.836;23.998;2023-09-19T03:24:05;5.00;;;3.90;;
12623;SDS011;6377;42.836;23.998;2023-09-19T03:26:33;5.73;;;4.10;;
12623;SDS011;6377;42.836;23.998;2023-09-19T03:29:04;4.17;;;3.77;;
12623;SDS011;6377;42.836;23.998;2023-09-19T03:31:33;5.47;;;4.00;;
12623;SDS011;6377;42.836;23.998;2023-09-19T03:34:02;4.23;;;3.83;;
12623;SDS011;6377;42.836;23.998;2023-09-19T03:36:30;9.47;;;4.60;;
12623;SDS011;6377;42.836;23.998;2023-09-19T03:38:59;6.40;;;4.33;;
12623;SDS011;6377;42.836;23.998;2023-09-19T03:41:30;6.13;;;4.23;;
12623;SDS011;6377;42.836;23.998;2023-09-19T03:43:58;5.03;;;4.10;;
12623;SDS011;6377;42.836;23.998;2023-09-19T03:46:27;6.03;;;4.13;;
12623;SDS011;6377;42.836;23.998;2023-09-19T03:48:55;6.23;;;4.20;;
12623;SDS011;6377;42.836;23.998;2023-09-19T03:51:22;5.63;;;4.30;;
12623;SDS011;6377;42.836;23.998;2023-09-19T03:53:49;5.93;;;4.87;;
12623;SDS011;6377;42.836;23.998;2023-09-19T03:56:17;7.77;;;5.00;;
12623;SDS011;6377;42.836;23.998;2023-09-19T03:58:44;7.30;;;4.80;;
12623;SDS011;6377;42.836;23.998;2023-09-19T04:01:11;6.57;;;4.60;;
12623;SDS011;6377;42.836;23.998;2023-09-19T04:03:40;5.10;;;4.60;;
12623;SDS011;6377;42.836;23.998;2023-09-19T04:06:13;7.07;;;4.60;;
12623;SDS011;6377;42.836;23.998;2023-09-19T04:08:40;7.60;;;4.77;;
12623;SDS011;6377;42.836;23.998;2023-09-19T04:11:08;6.90;;;4.40;;
12623;SDS011;6377;42.836;23.998;2023-09-19T04:13:35;6.40;;;4.43;;
12623;SDS011;6377;42.836;23.998;2023-09-19T04:16:03;5.10;;;4.33;;
12623;SDS011;6377;42.836;23.998;2023-09-19T04:18:32;6.00;;;4.63;;
12623;SDS011;6377;42.836;23.998;2023-09-19T04:21:04;5.77;;;4.27;;
12623;SDS011;6377;42.836;23.998;2023-09-19T04:23:31;8.27;;;4.60;;
12623;SDS011;6377;42.836;23.998;2023-09-19T04:25:58;5.33;;;4.30;;
12623;SDS011;6377;42.836;23.998;2023-09-19T04:28:25;8.23;;;4.40;;
12623;SDS011;6377;42.836;23.998;2023-09-19T04:30:53;6.73;;;4.10;;
12623;SDS011;6377;42.836;23.998;2023-09-19T04:33:24;4.70;;;4.00;;
12623;SDS011;6377;42.836;23.998;2023-09-19T04:35:52;9.40;;;6.97;;
12623;SDS011;6377;42.836;23.998;2023-09-19T04:38:21;11.63;;;7.50;;
12623;SDS011;6377;42.836;23.998;2023-09-19T04:40:48;7.93;;;6.40;;
12623;SDS011;6377;42.836;23.998;2023-09-19T04:43:16;9.97;;;6.87;;
12623;SDS011;6377;42.836;23.998;2023-09-19T04:45:43;12.73;;;7.27;;
12623;SDS011;6377;42.836;23.998;2023-09-19T04:48:10;11.40;;;7.73;;
12623;SDS011;6377;42.836;23.998;2023-09-19T04:50:39;11.70;;;7.97;;
12623;SDS011;6377;42.836;23.998;2023-09-19T04:53:06;13.00;;;7.53;;
12623;SDS011;6377;42.836;23.998;2023-09-19T04:55:35;11.50;;;7.70;;
12623;SDS011;6377;42.836;23.998;2023-09-19T04:58:03;10.37;;;7.10;;
12623;SDS011;6377;42.836;23.998;2023-09-19T05:00:30;12.10;;;7.97;;
12623;SDS011;6377;42.836;23.998;2023-09-19T05:03:00;9.23;;;7.03;;
12623;SDS011;6377;42.836;23.998;2023-09-19T05:05:29;9.90;;;6.90;;
12623;SDS011;6377;42.836;23.998;2023-09-19T05:07:56;8.17;;;6.80;;
12623;SDS011;6377;42.836;23.998;2023-09-19T05:10:24;9.63;;;6.97;;
12623;SDS011;6377;42.836;23.998;2023-09-19T05:12:54;9.80;;;6.63;;
12623;SDS011;6377;42.836;23.998;2023-09-19T05:15:22;8.30;;;6.77;;
12623;SDS011;6377;42.836;23.998;2023-09-19T05:17:49;9.30;;;6.20;;
12623;SDS011;6377;42.836;23.998;2023-09-19T05:20:17;8.03;;;6.33;;
12623;SDS011;6377;42.836;23.998;2023-09-19T05:22:49;9.63;;;6.03;;
12623;SDS011;6377;42.836;23.998;2023-09-19T05:25:17;8.37;;;6.00;;
12623;SDS011;6377;42.836;23.998;2023-09-19T05:27:45;9.00;;;6.50;;
12623;SDS011;6377;42.836;23.998;2023-09-19T05:30:14;8.83;;;6.70;;
12623;SDS011;6377;42.836;23.998;2023-09-19T05:32:41;9.70;;;6.47;;
12623;SDS011;6377;42.836;23.998;2023-09-19T05:35:09;8.10;;;6.00;;
12623;SDS011;6377;42.836;23.998;2023-09-19T05:37:38;8.37;;;6.13;;
12623;SDS011;6377;42.836;23.998;2023-09-19T05:40:05;7.37;;;6.17;;
12623;SDS011;6377;42.836;23.998;2023-09-19T05:42:35;8.27;;;6.30;;
12623;SDS011;6377;42.836;23.998;2023-09-19T05:45:03;10.23;;;5.93;;
12623;SDS011;6377;42.836;23.998;2023-09-19T05:47:33;6.53;;;5.73;;
12623;SDS011;6377;42.836;23.998;2023-09-19T05:50:00;8.17;;;5.97;;
12623;SDS011;6377;42.836;23.998;2023-09-19T05:52:28;6.73;;;5.63;;
12623;SDS011;6377;42.836;23.998;2023-09-19T05:54:55;8.20;;;6.00;;
12623;SDS011;6377;42.836;23.998;2023-09-19T05:57:23;8.20;;;5.97;;
12623;SDS011;6377;42.836;23.998;2023-09-19T05:59:50;8.57;;;5.67;;
12623;SDS011;6377;42.836;23.998;2023-09-19T06:02:17;7.50;;;5.80;;
12623;SDS011;6377;42.836;23.998;2023-09-19T06:04:46;8.13;;;5.73;;
12623;SDS011;6377;42.836;23.998;2023-09-19T06:07:14;6.63;;;5.13;;
12623;SDS011;6377;42.836;23.998;2023-09-19T06:09:41;8.30;;;6.00;;
12623;SDS011;6377;42.836;23.998;2023-09-19T06:12:09;5.70;;;5.20;;
12623;SDS011;6377;42.836;23.998;2023-09-19T06:14:39;7.63;;;5.47;;
12623;SDS011;6377;42.836;23.998;2023-09-19T06:17:06;7.33;;;5.90;;
12623;SDS011;6377;42.836;23.998;2023-09-19T06:19:34;8.00;;;5.70;;
12623;SDS011;6377;42.836;23.998;2023-09-19T06:22:02;6.47;;;5.73;;
12623;SDS011;6377;42.836;23.998;2023-09-19T06:24:30;8.30;;;6.00;;
12623;SDS011;6377;42.836;23.998;2023-09-19T06:26:57;6.27;;;5.60;;
12623;SDS011;6377;42.836;23.998;2023-09-19T06:29:27;6.38;;;5.55;;
12623;SDS011;6377;42.836;23.998;2023-09-19T06:31:54;7.03;;;5.90;;
12623;SDS011;6377;42.836;23.998;2023-09-19T06:34:21;8.10;;;5.80;;
12623;SDS011;6377;42.836;23.998;2023-09-19T06:36:48;9.33;;;5.83;;
12623;SDS011;6377;42.836;23.998;2023-09-19T06:39:17;6.93;;;5.60;;
12623;SDS011;6377;42.836;23.998;2023-09-19T06:41:45;8.68;;;5.65;;
12623;SDS011;6377;42.836;23.998;2023-09-19T06:44:12;13.17;;;7.77;;
12623;SDS011;6377;42.836;23.998;2023-09-19T06:46:40;8.47;;;6.93;;
12623;SDS011;6377;42.836;23.998;2023-09-19T06:49:07;9.53;;;7.30;;
12623;SDS011;6377;42.836;23.998;2023-09-19T06:51:36;12.73;;;7.67;;
12623;SDS011;6377;42.836;23.998;2023-09-19T06:54:03;10.63;;;7.00;;
12623;SDS011;6377;42.836;23.998;2023-09-19T06:56:32;11.47;;;8.10;;
12623;SDS011;6377;42.836;23.998;2023-09-19T06:58:59;11.37;;;6.77;;
12623;SDS011;6377;42.836;23.998;2023-09-19T07:01:27;10.67;;;6.40;;
12623;SDS011;6377;42.836;23.998;2023-09-19T07:03:57;10.40;;;7.28;;
12623;SDS011;6377;42.836;23.998;2023-09-19T07:06:24;7.85;;;6.00;;
12623;SDS011;6377;42.836;23.998;2023-09-19T07:08:51;10.02;;;7.03;;
12623;SDS011;6377;42.836;23.998;2023-09-19T07:11:18;7.85;;;6.72;;
12623;SDS011;6377;42.836;23.998;2023-09-19T07:13:48;8.23;;;6.47;;
12623;SDS011;6377;42.836;23.998;2023-09-19T07:16:15;10.20;;;6.77;;
12623;SDS011;6377;42.836;23.998;2023-09-19T07:18:52;9.70;;;7.33;;
12623;SDS011;6377;42.836;23.998;2023-09-19T07:21:20;6.28;;;5.68;;
12623;SDS011;6377;42.836;23.998;2023-09-19T07:23:47;8.98;;;6.65;;
12623;SDS011;6377;42.836;23.998;2023-09-19T07:26:15;9.37;;;7.20;;
12623;SDS011;6377;42.836;23.998;2023-09-19T07:28:42;9.63;;;7.07;;
12623;SDS011;6377;42.836;23.998;2023-09-19T07:31:11;7.22;;;6.30;;
12623;SDS011;6377;42.836;23.998;2023-09-19T07:33:39;9.38;;;7.03;;
12623;SDS011;6377;42.836;23.998;2023-09-19T07:36:10;7.50;;;6.78;;
12623;SDS011;6377;42.836;23.998;2023-09-19T07:38:39;8.93;;;6.10;;
12623;SDS011;6377;42.836;23.998;2023-09-19T07:41:06;9.18;;;6.90;;
12623;SDS011;6377;42.836;23.998;2023-09-19T07:43:34;9.77;;;6.35;;
12623;SDS011;6377;42.836;23.998;2023-09-19T07:46:03;8.43;;;6.28;;
12623;SDS011;6377;42.836;23.998;2023-09-19T07:48:33;10.30;;;6.93;;
12623;SDS011;6377;42.836;23.998;2023-09-19T07:51:01;8.07;;;6.63;;
12623;SDS011;6377;42.836;23.998;2023-09-19T07:53:30;10.23;;;6.60;;
12623;SDS011;6377;42.836;23.998;2023-09-19T07:56:03;7.90;;;6.10;;
12623;SDS011;6377;42.836;23.998;2023-09-19T07:58:31;9.80;;;6.60;;
12623;SDS011;6377;42.836;23.998;2023-09-19T08:01:02;9.18;;;6.80;;
12623;SDS011;6377;42.836;23.998;2023-09-19T08:03:30;8.93;;;6.00;;
12623;SDS011;6377;42.836;23.998;2023-09-19T08:05:59;10.93;;;6.40;;
12623;SDS011;6377;42.836;23.998;2023-09-19T08:08:26;6.65;;;5.93;;
12623;SDS011;6377;42.836;23.998;2023-09-19T08:10:53;8.18;;;5.55;;
12623;SDS011;6377;42.836;23.998;2023-09-19T08:13:22;7.38;;;5.53;;
12623;SDS011;6377;42.836;23.998;2023-09-19T08:15:49;6.65;;;5.45;;
12623;SDS011;6377;42.836;23.998;2023-09-19T08:18:18;6.07;;;5.45;;
12623;SDS011;6377;42.836;23.998;2023-09-19T08:20:50;7.80;;;4.75;;
12623;SDS011;6377;42.836;23.998;2023-09-19T08:23:19;7.55;;;4.85;;
12623;SDS011;6377;42.836;23.998;2023-09-19T08:25:46;5.53;;;4.72;;
12623;SDS011;6377;42.836;23.998;2023-09-19T08:28:13;6.90;;;4.95;;
12623;SDS011;6377;42.836;23.998;2023-09-19T08:30:44;5.90;;;4.72;;
12623;SDS011;6377;42.836;23.998;2023-09-19T08:33:11;7.85;;;5.22;;
12623;SDS011;6377;42.836;23.998;2023-09-19T08:35:40;7.22;;;4.70;;
12623;SDS011;6377;42.836;23.998;2023-09-19T08:38:08;5.65;;;4.55;;
12623;SDS011;6377;42.836;23.998;2023-09-19T08:40:38;8.57;;;5.25;;
12623;SDS011;6377;42.836;23.998;2023-09-19T08:43:07;4.90;;;4.38;;
12623;SDS011;6377;42.836;23.998;2023-09-19T08:45:34;6.13;;;4.63;;
12623;SDS011;6377;42.836;23.998;2023-09-19T08:48:06;6.22;;;4.65;;
12623;SDS011;6377;42.836;23.998;2023-09-19T08:50:43;6.25;;;4.80;;
12623;SDS011;6377;42.836;23.998;2023-09-19T08:53:16;6.85;;;4.50;;
12623;SDS011;6377;42.836;23.998;2023-09-19T08:55:54;5.38;;;4.85;;
12623;SDS011;6377;42.836;23.998;2023-09-19T08:58:24;5.03;;;4.53;;
12623;SDS011;6377;42.836;23.998;2023-09-19T09:00:54;5.85;;;4.88;;
12623;SDS011;6377;42.836;23.998;2023-09-19T09:03:26;8.40;;;4.47;;
12623;SDS011;6377;42.836;23.998;2023-09-19T09:06:00;6.88;;;5.28;;
12623;SDS011;6377;42.836;23.998;2023-09-19T09:08:28;5.25;;;4.75;;
12623;SDS011;6377;42.836;23.998;2023-09-19T09:10:59;5.28;;;4.78;;
12623;SDS011;6377;42.836;23.998;2023-09-19T09:13:26;5.00;;;4.50;;
12623;SDS011;6377;42.836;23.998;2023-09-19T09:15:53;5.50;;;5.00;;
12623;SDS011;6377;42.836;23.998;2023-09-19T09:18:20;5.13;;;4.63;;
12623;SDS011;6377;42.836;23.998;2023-09-19T09:20:49;6.95;;;5.78;;
12623;SDS011;6377;42.836;23.998;2023-09-19T09:23:16;5.75;;;5.05;;
12623;SDS011;6377;42.836;23.998;2023-09-19T09:25:47;5.95;;;5.18;;
12623;SDS011;6377;42.836;23.998;2023-09-19T09:28:21;5.63;;;5.00;;
12623;SDS011;6377;42.836;23.998;2023-09-19T09:30:49;8.00;;;4.68;;
12623;SDS011;6377;42.836;23.998;2023-09-19T09:33:17;5.15;;;4.63;;
12623;SDS011;6377;42.836;23.998;2023-09-19T09:35:48;5.90;;;4.78;;
12623;SDS011;6377;42.836;23.998;2023-09-19T09:38:21;5.03;;;4.53;;
12623;SDS011;6377;42.836;23.998;2023-09-19T09:40:52;4.82;;;4.32;;
12623;SDS011;6377;42.836;23.998;2023-09-19T09:43:27;6.05;;;4.97;;
12623;SDS011;6377;42.836;23.998;2023-09-19T09:46:06;5.45;;;4.47;;
12623;SDS011;6377;42.836;23.998;2023-09-19T09:48:56;4.85;;;4.35;;
12623;SDS011;6377;42.836;23.998;2023-09-19T09:51:44;4.90;;;4.32;;
12623;SDS011;6377;42.836;23.998;2023-09-19T09:54:14;4.65;;;4.20;;
12623;SDS011;6377;42.836;23.998;2023-09-19T09:56:52;4.72;;;4.32;;
12623;SDS011;6377;42.836;23.998;2023-09-19T10:02:15;4.50;;;4.10;;
12623;SDS011;6377;42.836;23.998;2023-09-19T10:04:49;4.13;;;3.67;;
12623;SDS011;6377;42.836;23.998;2023-09-19T10:07:35;4.18;;;3.70;;
12623;SDS011;6377;42.836;23.998;2023-09-19T10:10:06;5.32;;;4.22;;
12623;SDS011;6377;42.836;23.998;2023-09-19T10:12:42;4.30;;;3.90;;
12623;SDS011;6377;42.836;23.998;2023-09-19T10:15:14;6.40;;;3.80;;
12623;SDS011;6377;42.836;23.998;2023-09-19T10:17:46;6.00;;;4.00;;
12623;SDS011;6377;42.836;23.998;2023-09-19T10:20:14;4.40;;;4.00;;
12623;SDS011;6377;42.836;23.998;2023-09-19T10:22:52;5.80;;;3.90;;
12623;SDS011;6377;42.836;23.998;2023-09-19T10:25:25;5.68;;;4.28;;
12623;SDS011;6377;42.836;23.998;2023-09-19T10:27:54;5.47;;;4.20;;
12623;SDS011;6377;42.836;23.998;2023-09-19T10:30:24;5.65;;;3.67;;
12623;SDS011;6377;42.836;23.998;2023-09-19T10:32:56;5.07;;;4.05;;
12623;SDS011;6377;42.836;23.998;2023-09-19T10:35:26;3.83;;;3.42;;
12623;SDS011;6377;42.836;23.998;2023-09-19T10:37:54;4.32;;;3.40;;
12623;SDS011;6377;42.836;23.998;2023-09-19T10:40:24;4.05;;;3.65;;
12623;SDS011;6377;42.836;23.998;2023-09-19T10:42:58;4.03;;;3.63;;
12623;SDS011;6377;42.836;23.998;2023-09-19T10:45:32;4.93;;;3.38;;
12623;SDS011;6377;42.836;23.998;2023-09-19T10:48:00;8.05;;;3.38;;
12623;SDS011;6377;42.836;23.998;2023-09-19T10:50:30;3.95;;;3.00;;
12623;SDS011;6377;42.836;23.998;2023-09-19T10:53:00;5.57;;;3.28;;
12623;SDS011;6377;42.836;23.998;2023-09-19T10:55:33;4.22;;;3.60;;
12623;SDS011;6377;42.836;23.998;2023-09-19T10:58:02;3.72;;;3.42;;
12623;SDS011;6377;42.836;23.998;2023-09-19T11:03:21;3.90;;;3.60;;
12623;SDS011;6377;42.836;23.998;2023-09-19T11:06:09;4.95;;;3.88;;
12623;SDS011;6377;42.836;23.998;2023-09-19T11:08:55;5.53;;;3.55;;
12623;SDS011;6377;42.836;23.998;2023-09-19T11:11:45;6.13;;;3.90;;
12623;SDS011;6377;42.836;23.998;2023-09-19T11:14:16;3.85;;;3.55;;
12623;SDS011;6377;42.836;23.998;2023-09-19T11:25:51;3.83;;;3.40;;
12623;SDS011;6377;42.836;23.998;2023-09-19T11:28:29;4.45;;;3.78;;
12623;SDS011;6377;42.836;23.998;2023-09-19T11:30:58;4.50;;;3.67;;
12623;SDS011;6377;42.836;23.998;2023-09-19T11:33:47;3.90;;;3.50;;
12623;SDS011;6377;42.836;23.998;2023-09-19T11:36:15;4.20;;;3.75;;
12623;SDS011;6377;42.836;23.998;2023-09-19T11:39:00;4.05;;;3.65;;
12623;SDS011;6377;42.836;23.998;2023-09-19T11:41:40;7.00;;;4.00;;
12623;SDS011;6377;42.836;23.998;2023-09-19T11:47:03;4.82;;;4.20;;
12623;SDS011;6377;42.836;23.998;2023-09-19T11:49:33;4.18;;;3.55;;
12623;SDS011;6377;42.836;23.998;2023-09-19T11:52:02;4.95;;;4.05;;
12623;SDS011;6377;42.836;23.998;2023-09-19T11:54:33;4.28;;;3.80;;
12623;SDS011;6377;42.836;23.998;2023-09-19T11:57:05;4.20;;;3.80;;
12623;SDS011;6377;42.836;23.998;2023-09-19T11:59:35;4.75;;;3.83;;
12623;SDS011;6377;42.836;23.998;2023-09-19T12:02:05;4.55;;;3.63;;
12623;SDS011;6377;42.836;23.998;2023-09-19T12:04:35;4.10;;;3.50;;
12623;SDS011;6377;42.836;23.998;2023-09-19T12:07:05;5.00;;;4.00;;
12623;SDS011;6377;42.836;23.998;2023-09-19T12:09:38;4.50;;;4.00;;
12623;SDS011;6377;42.836;23.998;2023-09-19T12:12:09;4.43;;;4.03;;
12623;SDS011;6377;42.836;23.998;2023-09-19T12:14:37;4.78;;;3.83;;
12623;SDS011;6377;42.836;23.998;2023-09-19T12:17:07;6.68;;;4.03;;
12623;SDS011;6377;42.836;23.998;2023-09-19T12:19:35;4.95;;;3.90;;
12623;SDS011;6377;42.836;23.998;2023-09-19T12:22:03;5.50;;;4.03;;
12623;SDS011;6377;42.836;23.998;2023-09-19T12:24:31;4.20;;;3.80;;
12623;SDS011;6377;42.836;23.998;2023-09-19T12:27:00;5.20;;;3.70;;
12623;SDS011;6377;42.836;23.998;2023-09-19T12:29:31;5.30;;;4.47;;
12623;SDS011;6377;42.836;23.998;2023-09-19T12:31:59;7.05;;;3.92;;
12623;SDS011;6377;42.836;23.998;2023-09-19T12:34:29;6.63;;;4.25;;
12623;SDS011;6377;42.836;23.998;2023-09-19T12:40:03;4.13;;;3.53;;
12623;SDS011;6377;42.836;23.998;2023-09-19T12:42:40;4.35;;;3.95;;
12623;SDS011;6377;42.836;23.998;2023-09-19T12:45:08;5.03;;;3.70;;
12623;SDS011;6377;42.836;23.998;2023-09-19T12:47:36;7.25;;;4.50;;
12623;SDS011;6377;42.836;23.998;2023-09-19T12:50:09;4.95;;;3.42;;
12623;SDS011;6377;42.836;23.998;2023-09-19T12:52:44;5.07;;;4.10;;
12623;SDS011;6377;42.836;23.998;2023-09-19T12:55:23;4.93;;;3.85;;
12623;SDS011;6377;42.836;23.998;2023-09-19T12:58:12;4.72;;;4.20;;
12623;SDS011;6377;42.836;23.998;2023-09-19T13:00:41;3.70;;;3.40;;
12623;SDS011;6377;42.836;23.998;2023-09-19T13:03:13;5.40;;;3.70;;
12623;SDS011;6377;42.836;23.998;2023-09-19T13:05:48;4.47;;;3.90;;
12623;SDS011;6377;42.836;23.998;2023-09-19T13:08:19;5.43;;;4.25;;
12623;SDS011;6377;42.836;23.998;2023-09-19T13:11:07;6.38;;;4.40;;
12623;SDS011;6377;42.836;23.998;2023-09-19T13:13:38;4.93;;;3.72;;
12623;SDS011;6377;42.836;23.998;2023-09-19T13:16:09;5.13;;;3.92;;
12623;SDS011;6377;42.836;23.998;2023-09-19T13:18:43;4.55;;;4.05;;
12623;SDS011;6377;42.836;23.998;2023-09-19T13:21:12;4.18;;;3.78;;
12623;SDS011;6377;42.836;23.998;2023-09-19T13:23:49;4.15;;;3.78;;
12623;SDS011;6377;42.836;23.998;2023-09-19T13:26:17;4.43;;;4.03;;
12623;SDS011;6377;42.836;23.998;2023-09-19T13:28:45;4.43;;;3.75;;
12623;SDS011;6377;42.836;23.998;2023-09-19T13:31:14;5.05;;;3.97;;
12623;SDS011;6377;42.836;23.998;2023-09-19T13:33:43;6.75;;;4.45;;
12623;SDS011;6377;42.836;23.998;2023-09-19T13:36:12;4.22;;;3.33;;
12623;SDS011;6377;42.836;23.998;2023-09-19T13:38:39;3.80;;;3.50;;
12623;SDS011;6377;42.836;23.998;2023-09-19T13:41:10;5.07;;;3.55;;
12623;SDS011;6377;42.836;23.998;2023-09-19T13:43:37;8.00;;;3.65;;
12623;SDS011;6377;42.836;23.998;2023-09-19T13:46:05;4.28;;;3.70;;
12623;SDS011;6377;42.836;23.998;2023-09-19T13:48:37;5.18;;;3.50;;
12623;SDS011;6377;42.836;23.998;2023-09-19T13:51:04;4.28;;;3.58;;
12623;SDS011;6377;42.836;23.998;2023-09-19T13:53:31;4.22;;;3.47;;
12623;SDS011;6377;42.836;23.998;2023-09-19T13:55:59;4.63;;;3.30;;
12623;SDS011;6377;42.836;23.998;2023-09-19T13:58:27;4.15;;;3.67;;
12623;SDS011;6377;42.836;23.998;2023-09-19T14:00:56;3.58;;;3.28;;
12623;SDS011;6377;42.836;23.998;2023-09-19T14:03:25;4.13;;;3.50;;
12623;SDS011;6377;42.836;23.998;2023-09-19T14:05:54;4.35;;;3.60;;
12623;SDS011;6377;42.836;23.998;2023-09-19T14:08:21;8.43;;;3.90;;
12623;SDS011;6377;42.836;23.998;2023-09-19T14:10:49;5.57;;;3.80;;
12623;SDS011;6377;42.836;23.998;2023-09-19T14:13:17;5.15;;;3.80;;
12623;SDS011;6377;42.836;23.998;2023-09-19T14:15:47;4.55;;;3.65;;
12623;SDS011;6377;42.836;23.998;2023-09-19T14:18:14;5.35;;;3.90;;
12623;SDS011;6377;42.836;23.998;2023-09-19T14:20:41;6.53;;;3.80;;
12623;SDS011;6377;42.836;23.998;2023-09-19T14:23:09;4.03;;;3.60;;
12623;SDS011;6377;42.836;23.998;2023-09-19T14:25:36;4.78;;;3.65;;
12623;SDS011;6377;42.836;23.998;2023-09-19T14:28:04;3.88;;;3.58;;
12623;SDS011;6377;42.836;23.998;2023-09-19T14:30:33;5.70;;;3.20;;
12623;SDS011;6377;42.836;23.998;2023-09-19T14:33:04;5.53;;;3.60;;
12623;SDS011;6377;42.836;23.998;2023-09-19T14:35:32;4.18;;;3.42;;
12623;SDS011;6377;42.836;23.998;2023-09-19T14:37:59;4.68;;;3.58;;
12623;SDS011;6377;42.836;23.998;2023-09-19T14:40:26;4.13;;;3.38;;
12623;SDS011;6377;42.836;23.998;2023-09-19T14:42:53;5.18;;;3.60;;
12623;SDS011;6377;42.836;23.998;2023-09-19T14:45:21;4.25;;;3.75;;
12623;SDS011;6377;42.836;23.998;2023-09-19T14:47:48;4.53;;;3.45;;
12623;SDS011;6377;42.836;23.998;2023-09-19T14:50:21;4.88;;;3.72;;
12623;SDS011;6377;42.836;23.998;2023-09-19T14:52:49;5.10;;;3.63;;
12623;SDS011;6377;42.836;23.998;2023-09-19T14:55:17;3.97;;;3.47;;
12623;SDS011;6377;42.836;23.998;2023-09-19T14:57:48;3.58;;;3.05;;
12623;SDS011;6377;42.836;23.998;2023-09-19T15:00:16;4.90;;;3.30;;
12623;SDS011;6377;42.836;23.998;2023-09-19T15:02:46;3.45;;;3.10;;
12623;SDS011;6377;42.836;23.998;2023-09-19T15:05:15;4.65;;;3.17;;
12623;SDS011;6377;42.836;23.998;2023-09-19T15:07:44;3.53;;;3.17;;
12623;SDS011;6377;42.836;23.998;2023-09-19T15:10:11;2.80;;;2.60;;
12623;SDS011;6377;42.836;23.998;2023-09-19T15:12:38;3.38;;;3.08;;
12623;SDS011;6377;42.836;23.998;2023-09-19T15:15:06;4.20;;;2.90;;
12623;SDS011;6377;42.836;23.998;2023-09-19T15:17:35;4.40;;;3.03;;
12623;SDS011;6377;42.836;23.998;2023-09-19T15:20:02;4.47;;;2.95;;
12623;SDS011;6377;42.836;23.998;2023-09-19T15:22:31;4.38;;;3.40;;
12623;SDS011;6377;42.836;23.998;2023-09-19T15:25:01;3.60;;;2.92;;